sensor_id;sensor_type;location;lat;lon;timestamp;pressure;altitude;pressure_sealevel;temperature;humidity
39555;BME280;25231;48.746;9.234;2022-11-20T00:01:41;96199.09;;;4.93;100.00
39555;BME280;25231;48.746;9.234;2022-11-20T00:04:08;96205.50;;;4.90;100.00
39555;BME280;25231;48.746;9.234;2022-11-20T00:06:33;96198.09;;;5.00;100.00
39555;BME280;25231;48.746;9.234;2022-11-20T00:08:59;96207.50;;;4.88;100.00
39555;BME280;25231;48.746;9.234;2022-11-20T00:11:27;96210.47;;;4.92;100.00
39555;BME280;25231;48.746;9.234;2022-11-20T00:13:56;96209.09;;;4.89;100.00
39555;BME280;25231;48.746;9.234;2022-11-20T00:16:26;96215.13;;;4.83;100.00
39555;BME280;25231;48.746;9.234;2022-11-20T00:18:53;96205.28;;;4.92;100.00
39555;BME280;25231;48.746;9.234;2022-11-20T00:21:21;96211.72;;;4.83;100.00
39555;BME280;25231;48.746;9.234;2022-11-20T00:23:46;96210.09;;;4.88;100.00
39555;BME280;25231;48.746;9.234;2022-11-20T00:26:15;96208.69;;;4.86;100.00
39555;BME280;25231;48.746;9.234;2022-11-20T00:28:41;96206.88;;;4.93;100.00
39555;BME280;25231;48.746;9.234;2022-11-20T00:31:10;96210.91;;;4.82;100.00
39555;BME280;25231;48.746;9.234;2022-11-20T00:33:36;96205.47;;;4.97;100.00
39555;BME280;25231;48.746;9.234;2022-11-20T00:36:06;96209.94;;;4.83;100.00
39555;BME280;25231;48.746;9.234;2022-11-20T00:38:32;96213.69;;;4.94;100.00
39555;BME280;25231;48.746;9.234;2022-11-20T00:40:58;96208.09;;;4.90;100.00
39555;BME280;25231;48.746;9.234;2022-11-20T00:43:25;96205.81;;;5.07;100.00
39555;BME280;25231;48.746;9.234;2022-11-20T00:45:51;96208.25;;;5.02;100.00
39555;BME280;25231;48.746;9.234;2022-11-20T00:48:20;96208.41;;;5.07;100.00
39555;BME280;25231;48.746;9.234;2022-11-20T00:50:45;96222.03;;;5.02;100.00
39555;BME280;25231;48.746;9.234;2022-11-20T00:53:11;96225.88;;;4.93;100.00
39555;BME280;25231;48.746;9.234;2022-11-20T00:55:36;96220.28;;;4.90;100.00
39555;BME280;25231;48.746;9.234;2022-11-20T00:58:01;96225.44;;;4.96;100.00
39555;BME280;25231;48.746;9.234;2022-11-20T01:00:27;96225.69;;;4.88;100.00
39555;BME280;25231;48.746;9.234;2022-11-20T01:02:52;96217.28;;;4.93;100.00
39555;BME280;25231;48.746;9.234;2022-11-20T01:05:17;96225.03;;;5.06;100.00
39555;BME280;25231;48.746;9.234;2022-11-20T01:07:43;96216.44;;;5.06;100.00
39555;BME280;25231;48.746;9.234;2022-11-20T01:10:08;96218.28;;;4.92;100.00
39555;BME280;25231;48.746;9.234;2022-11-20T01:12:33;96223.09;;;4.88;100.00
39555;BME280;25231;48.746;9.234;2022-11-20T01:14:59;96223.44;;;4.98;100.00
39555;BME280;25231;48.746;9.234;2022-11-20T01:17:24;96219.44;;;5.02;100.00
39555;BME280;25231;48.746;9.234;2022-11-20T01:19:50;96228.44;;;5.00;100.00
39555;BME280;25231;48.746;9.234;2022-11-20T01:22:15;96220.44;;;5.01;100.00
39555;BME280;25231;48.746;9.234;2022-11-20T01:24:41;96232.38;;;5.16;100.00
39555;BME280;25231;48.746;9.234;2022-11-20T01:27:06;96234.81;;;5.11;100.00
39555;BME280;25231;48.746;9.234;2022-11-20T01:29:31;96236.63;;;4.97;100.00
39555;BME280;25231;48.746;9.234;2022-11-20T01:31:57;96235.25;;;4.94;100.00
39555;BME280;25231;48.746;9.234;2022-11-20T01:34:22;96233.47;;;4.95;100.00
39555;BME280;25231;48.746;9.234;2022-11-20T01:36:48;96237.88;;;4.88;100.00
39555;BME280;25231;48.746;9.234;2022-11-20T01:39:17;96231.69;;;4.89;100.00
39555;BME280;25231;48.746;9.234;2022-11-20T01:41:43;96229.28;;;4.81;100.00
39555;BME280;25231;48.746;9.234;2022-11-20T01:47:09;96230.53;;;4.65;100.00
39555;BME280;25231;48.746;9.234;2022-11-20T01:49:39;96227.94;;;4.65;100.00
39555;BME280;25231;48.746;9.234;2022-11-20T01:52:29;96222.31;;;4.68;100.00
39555;BME280;25231;48.746;9.234;2022-11-20T01:55:08;96215.75;;;4.66;100.00
39555;BME280;25231;48.746;9.234;2022-11-20T01:57:35;96215.16;;;4.64;100.00
39555;BME280;25231;48.746;9.234;2022-11-20T02:00:11;96223.56;;;4.52;100.00
39555;BME280;25231;48.746;9.234;2022-11-20T02:02:38;96220.59;;;4.49;100.00
39555;BME280;25231;48.746;9.234;2022-11-20T02:05:14;96232.56;;;4.43;100.00
39555;BME280;25231;48.746;9.234;2022-11-20T02:07:41;96225.19;;;4.34;100.00
39555;BME280;25231;48.746;9.234;2022-11-20T02:10:07;96237.56;;;4.38;100.00
39555;BME280;25231;48.746;9.234;2022-11-20T02:12:32;96237.16;;;4.41;100.00
39555;BME280;25231;48.746;9.234;2022-11-20T02:15:16;96238.75;;;4.36;100.00
39555;BME280;25231;48.746;9.234;2022-11-20T02:17:42;96239.34;;;4.38;100.00
39555;BME280;25231;48.746;9.234;2022-11-20T02:20:08;96234.56;;;4.48;100.00
39555;BME280;25231;48.746;9.234;2022-11-20T02:22:58;96239.34;;;4.44;100.00
39555;BME280;25231;48.746;9.234;2022-11-20T02:25:26;96241.75;;;4.39;100.00
39555;BME280;25231;48.746;9.234;2022-11-20T02:27:52;96236.75;;;4.51;100.00
39555;BME280;25231;48.746;9.234;2022-11-20T02:30:18;96229.53;;;4.59;100.00
39555;BME280;25231;48.746;9.234;2022-11-20T02:32:43;96236.53;;;4.46;100.00
39555;BME280;25231;48.746;9.234;2022-11-20T02:37:43;96232.56;;;4.43;100.00
39555;BME280;25231;48.746;9.234;2022-11-20T02:40:10;96237.94;;;4.35;100.00
39555;BME280;25231;48.746;9.234;2022-11-20T02:42:36;96232.75;;;4.35;100.00
39555;BME280;25231;48.746;9.234;2022-11-20T02:45:03;96235.75;;;4.39;100.00
39555;BME280;25231;48.746;9.234;2022-11-20T02:47:28;96246.91;;;4.46;100.00
39555;BME280;25231;48.746;9.234;2022-11-20T02:49:54;96234.16;;;4.31;100.00
39555;BME280;25231;48.746;9.234;2022-11-20T02:52:19;96231.56;;;4.25;100.00
39555;BME280;25231;48.746;9.234;2022-11-20T02:54:44;96236.38;;;4.28;100.00
39555;BME280;25231;48.746;9.234;2022-11-20T02:57:10;96235.56;;;4.34;100.00
39555;BME280;25231;48.746;9.234;2022-11-20T02:59:35;96239.75;;;4.35;100.00
39555;BME280;25231;48.746;9.234;2022-11-20T03:02:00;96242.75;;;4.38;100.00
39555;BME280;25231;48.746;9.234;2022-11-20T03:04:26;96238.56;;;4.31;100.00
39555;BME280;25231;48.746;9.234;2022-11-20T03:06:51;96240.16;;;4.38;100.00
39555;BME280;25231;48.746;9.234;2022-11-20T03:09:16;96235.97;;;4.44;100.00
39555;BME280;25231;48.746;9.234;2022-11-20T03:11:42;96243.94;;;4.49;100.00
39555;BME280;25231;48.746;9.234;2022-11-20T03:14:07;96235.16;;;4.37;100.00
39555;BME280;25231;48.746;9.234;2022-11-20T03:16:32;96238.56;;;4.44;100.00
39555;BME280;25231;48.746;9.234;2022-11-20T03:18:58;96234.16;;;4.44;100.00
39555;BME280;25231;48.746;9.234;2022-11-20T03:21:24;96234.34;;;4.43;100.00
39555;BME280;25231;48.746;9.234;2022-11-20T03:23:49;96239.75;;;4.41;100.00
39555;BME280;25231;48.746;9.234;2022-11-20T03:26:21;96228.75;;;4.52;100.00
39555;BME280;25231;48.746;9.234;2022-11-20T03:28:49;96226.94;;;4.53;100.00
39555;BME280;25231;48.746;9.234;2022-11-20T03:31:15;96226.16;;;4.59;100.00
39555;BME280;25231;48.746;9.234;2022-11-20T03:33:42;96220.16;;;4.52;100.00
39555;BME280;25231;48.746;9.234;2022-11-20T03:36:10;96217.75;;;4.57;100.00
39555;BME280;25231;48.746;9.234;2022-11-20T03:38:36;96225.78;;;4.42;100.00
39555;BME280;25231;48.746;9.234;2022-11-20T03:41:04;96229.78;;;4.32;100.00
39555;BME280;25231;48.746;9.234;2022-11-20T03:43:29;96215.19;;;4.50;100.00
39555;BME280;25231;48.746;9.234;2022-11-20T03:45:55;96227.38;;;4.43;100.00
39555;BME280;25231;48.746;9.234;2022-11-20T03:48:20;96229.97;;;4.37;100.00
39555;BME280;25231;48.746;9.234;2022-11-20T03:50:45;96221.19;;;4.25;100.00
39555;BME280;25231;48.746;9.234;2022-11-20T03:53:13;96226.78;;;4.22;100.00
39555;BME280;25231;48.746;9.234;2022-11-20T03:55:38;96222.59;;;4.21;100.00
39555;BME280;25231;48.746;9.234;2022-11-20T03:58:04;96223.81;;;4.11;100.00
39555;BME280;25231;48.746;9.234;2022-11-20T04:00:29;96228.78;;;4.00;100.00
39555;BME280;25231;48.746;9.234;2022-11-20T04:02:58;96223.00;;;4.04;100.00
39555;BME280;25231;48.746;9.234;2022-11-20T04:05:23;96218.19;;;4.01;100.00
39555;BME280;25231;48.746;9.234;2022-11-20T04:07:48;96222.41;;;3.89;100.00
39555;BME280;25231;48.746;9.234;2022-11-20T04:10:14;96213.63;;;3.97;100.00
39555;BME280;25231;48.746;9.234;2022-11-20T04:12:39;96226.56;;;3.90;100.00
39555;BME280;25231;48.746;9.234;2022-11-20T04:15:05;96220.41;;;3.91;100.00
39555;BME280;25231;48.746;9.234;2022-11-20T04:17:30;96221.41;;;3.84;100.00
39555;BME280;25231;48.746;9.234;2022-11-20T04:19:55;96217.03;;;3.84;100.00
39555;BME280;25231;48.746;9.234;2022-11-20T04:22:21;96216.00;;;3.85;100.00
39555;BME280;25231;48.746;9.234;2022-11-20T04:24:46;96217.81;;;3.98;100.00
39555;BME280;25231;48.746;9.234;2022-11-20T04:27:11;96215.41;;;4.03;100.00
39555;BME280;25231;48.746;9.234;2022-11-20T04:29:37;96216.03;;;4.05;100.00
39555;BME280;25231;48.746;9.234;2022-11-20T04:32:02;96221.59;;;4.02;100.00
39555;BME280;25231;48.746;9.234;2022-11-20T04:34:27;96209.66;;;4.01;100.00
39555;BME280;25231;48.746;9.234;2022-11-20T04:36:53;96209.44;;;4.02;100.00
39555;BME280;25231;48.746;9.234;2022-11-20T04:39:18;96204.25;;;4.02;100.00
39555;BME280;25231;48.746;9.234;2022-11-20T04:41:43;96213.00;;;4.01;100.00
39555;BME280;25231;48.746;9.234;2022-11-20T04:44:09;96212.03;;;4.02;100.00
39555;BME280;25231;48.746;9.234;2022-11-20T04:46:37;96204.06;;;4.04;100.00
39555;BME280;25231;48.746;9.234;2022-11-20T04:49:03;96205.84;;;3.97;100.00
39555;BME280;25231;48.746;9.234;2022-11-20T04:51:29;96210.66;;;4.00;100.00
39555;BME280;25231;48.746;9.234;2022-11-20T04:53:54;96207.06;;;4.01;100.00
39555;BME280;25231;48.746;9.234;2022-11-20T04:56:20;96201.06;;;4.13;100.00
39555;BME280;25231;48.746;9.234;2022-11-20T04:58:45;96206.84;;;4.22;100.00
39555;BME280;25231;48.746;9.234;2022-11-20T05:01:20;96203.66;;;4.13;100.00
39555;BME280;25231;48.746;9.234;2022-11-20T05:03:46;96208.44;;;4.16;100.00
39555;BME280;25231;48.746;9.234;2022-11-20T05:06:13;96195.06;;;4.13;100.00
39555;BME280;25231;48.746;9.234;2022-11-20T05:08:40;96206.06;;;4.22;100.00
39555;BME280;25231;48.746;9.234;2022-11-20T05:11:08;96208.22;;;4.18;100.00
39555;BME280;25231;48.746;9.234;2022-11-20T05:13:34;96204.44;;;4.27;100.00
39555;BME280;25231;48.746;9.234;2022-11-20T05:16:05;96200.25;;;4.33;100.00
39555;BME280;25231;48.746;9.234;2022-11-20T05:18:31;96211.25;;;4.28;100.00
39555;BME280;25231;48.746;9.234;2022-11-20T05:20:58;96202.44;;;4.29;100.00
39555;BME280;25231;48.746;9.234;2022-11-20T05:23:24;96203.41;;;4.35;100.00
39555;BME280;25231;48.746;9.234;2022-11-20T05:25:54;96203.03;;;4.38;100.00
39555;BME280;25231;48.746;9.234;2022-11-20T05:28:20;96200.81;;;4.35;100.00
39555;BME280;25231;48.746;9.234;2022-11-20T05:30:45;96202.63;;;4.41;100.00
39555;BME280;25231;48.746;9.234;2022-11-20T05:33:11;96201.44;;;4.37;100.00
39555;BME280;25231;48.746;9.234;2022-11-20T05:35:36;96197.44;;;4.41;100.00
39555;BME280;25231;48.746;9.234;2022-11-20T05:38:01;96197.44;;;4.47;100.00
39555;BME280;25231;48.746;9.234;2022-11-20T05:40:26;96199.59;;;4.57;100.00
39555;BME280;25231;48.746;9.234;2022-11-20T05:42:52;96205.81;;;4.43;100.00
39555;BME280;25231;48.746;9.234;2022-11-20T05:45:17;96200.22;;;4.46;100.00
39555;BME280;25231;48.746;9.234;2022-11-20T05:47:42;96201.81;;;4.53;100.00
39555;BME280;25231;48.746;9.234;2022-11-20T05:50:08;96205.00;;;4.55;100.00
39555;BME280;25231;48.746;9.234;2022-11-20T05:52:33;96199.00;;;4.55;100.00
39555;BME280;25231;48.746;9.234;2022-11-20T05:54:58;96202.78;;;4.66;100.00
39555;BME280;25231;48.746;9.234;2022-11-20T05:57:24;96200.63;;;4.56;100.00
39555;BME280;25231;48.746;9.234;2022-11-20T05:59:49;96203.59;;;4.59;100.00
39555;BME280;25231;48.746;9.234;2022-11-20T06:02:14;96206.19;;;4.46;100.00
39555;BME280;25231;48.746;9.234;2022-11-20T06:04:40;96201.25;;;4.45;100.00
39555;BME280;25231;48.746;9.234;2022-11-20T06:07:06;96200.63;;;4.56;100.00
39555;BME280;25231;48.746;9.234;2022-11-20T06:09:31;96203.78;;;4.58;100.00
39555;BME280;25231;48.746;9.234;2022-11-20T06:11:57;96199.81;;;4.49;100.00
39555;BME280;25231;48.746;9.234;2022-11-20T06:14:22;96199.41;;;4.58;100.00
39555;BME280;25231;48.746;9.234;2022-11-20T06:16:48;96198.81;;;4.56;100.00
39555;BME280;25231;48.746;9.234;2022-11-20T06:19:13;96202.22;;;4.50;100.00
39555;BME280;25231;48.746;9.234;2022-11-20T06:21:38;96200.41;;;4.57;100.00
39555;BME280;25231;48.746;9.234;2022-11-20T06:24:04;96194.81;;;4.60;100.00
39555;BME280;25231;48.746;9.234;2022-11-20T06:26:30;96198.81;;;4.50;100.00
39555;BME280;25231;48.746;9.234;2022-11-20T06:28:55;96195.81;;;4.46;100.00
39555;BME280;25231;48.746;9.234;2022-11-20T06:31:23;96195.19;;;4.57;100.00
39555;BME280;25231;48.746;9.234;2022-11-20T06:33:49;96194.81;;;4.54;100.00
39555;BME280;25231;48.746;9.234;2022-11-20T06:36:16;96189.22;;;4.57;100.00
39555;BME280;25231;48.746;9.234;2022-11-20T06:38:42;96184.88;;;4.51;100.00
39555;BME280;25231;48.746;9.234;2022-11-20T06:41:15;96185.06;;;4.49;100.00
39555;BME280;25231;48.746;9.234;2022-11-20T06:43:40;96184.03;;;4.57;100.00
39555;BME280;25231;48.746;9.234;2022-11-20T06:46:06;96195.19;;;4.57;100.00
39555;BME280;25231;48.746;9.234;2022-11-20T06:48:32;96190.44;;;4.54;100.00
39555;BME280;25231;48.746;9.234;2022-11-20T06:50:57;96193.03;;;4.54;100.00
39555;BME280;25231;48.746;9.234;2022-11-20T06:53:23;96186.03;;;4.62;100.00
39555;BME280;25231;48.746;9.234;2022-11-20T06:55:49;96190.44;;;4.48;100.00
39555;BME280;25231;48.746;9.234;2022-11-20T06:58:16;96193.41;;;4.51;100.00
39555;BME280;25231;48.746;9.234;2022-11-20T07:00:42;96198.22;;;4.54;100.00
39555;BME280;25231;48.746;9.234;2022-11-20T07:03:09;96199.41;;;4.52;100.00
39555;BME280;25231;48.746;9.234;2022-11-20T07:05:35;96199.81;;;4.55;100.00
39555;BME280;25231;48.746;9.234;2022-11-20T07:08:02;96199.22;;;4.47;100.00
39555;BME280;25231;48.746;9.234;2022-11-20T07:10:27;96206.81;;;4.48;100.00
39555;BME280;25231;48.746;9.234;2022-11-20T07:12:53;96204.00;;;4.56;100.00
39555;BME280;25231;48.746;9.234;2022-11-20T07:15:20;96209.81;;;4.45;100.00
39555;BME280;25231;48.746;9.234;2022-11-20T07:17:46;96212.78;;;4.55;100.00
39555;BME280;25231;48.746;9.234;2022-11-20T07:20:12;96204.00;;;4.56;100.00
39555;BME280;25231;48.746;9.234;2022-11-20T07:22:38;96213.38;;;4.57;100.00
39555;BME280;25231;48.746;9.234;2022-11-20T07:25:03;96201.00;;;4.53;100.00
39555;BME280;25231;48.746;9.234;2022-11-20T07:27:29;96209.75;;;4.72;100.00
39555;BME280;25231;48.746;9.234;2022-11-20T07:29:54;96210.75;;;4.77;100.00
39555;BME280;25231;48.746;9.234;2022-11-20T07:32:20;96207.94;;;4.79;100.00
39555;BME280;25231;48.746;9.234;2022-11-20T07:34:46;96203.94;;;4.83;100.00
39555;BME280;25231;48.746;9.234;2022-11-20T07:37:12;96214.25;;;4.96;100.00
39555;BME280;25231;48.746;9.234;2022-11-20T07:39:37;96214.03;;;5.04;100.00
39555;BME280;25231;48.746;9.234;2022-11-20T07:42:03;96219.22;;;5.11;100.00
39555;BME280;25231;48.746;9.234;2022-11-20T07:44:28;96218.22;;;6.98;100.00
39555;BME280;25231;48.746;9.234;2022-11-20T07:46:54;96218.94;;;6.01;100.00
39555;BME280;25231;48.746;9.234;2022-11-20T07:49:19;96224.25;;;5.43;100.00
39555;BME280;25231;48.746;9.234;2022-11-20T07:51:44;96221.22;;;5.47;100.00
39555;BME280;25231;48.746;9.234;2022-11-20T07:54:09;96217.88;;;5.46;100.00
39555;BME280;25231;48.746;9.234;2022-11-20T07:56:35;96223.66;;;5.41;100.00
39555;BME280;25231;48.746;9.234;2022-11-20T07:59:00;96223.78;;;5.53;100.00
39555;BME280;25231;48.746;9.234;2022-11-20T08:01:25;96230.94;;;5.64;100.00
39555;BME280;25231;48.746;9.234;2022-11-20T08:03:51;96225.19;;;5.56;100.00
39555;BME280;25231;48.746;9.234;2022-11-20T08:06:16;96236.72;;;5.66;100.00
39555;BME280;25231;48.746;9.234;2022-11-20T08:08:43;96234.59;;;5.57;100.00
39555;BME280;25231;48.746;9.234;2022-11-20T08:11:09;96233.78;;;5.56;100.00
39555;BME280;25231;48.746;9.234;2022-11-20T08:13:53;96244.94;;;5.63;100.00
39555;BME280;25231;48.746;9.234;2022-11-20T08:16:38;96241.78;;;5.55;100.00
39555;BME280;25231;48.746;9.234;2022-11-20T08:19:03;96246.09;;;5.74;100.00
39555;BME280;25231;48.746;9.234;2022-11-20T08:21:30;96240.47;;;5.77;100.00
39555;BME280;25231;48.746;9.234;2022-11-20T08:23:57;96247.22;;;5.84;100.00
39555;BME280;25231;48.746;9.234;2022-11-20T08:26:22;96236.88;;;5.78;100.00
39555;BME280;25231;48.746;9.234;2022-11-20T08:28:48;96238.69;;;5.71;100.00
39555;BME280;25231;48.746;9.234;2022-11-20T08:31:13;96249.66;;;5.79;100.00
39555;BME280;25231;48.746;9.234;2022-11-20T08:33:39;96252.13;;;5.68;100.00
39555;BME280;25231;48.746;9.234;2022-11-20T08:36:05;96244.41;;;5.86;100.00
39555;BME280;25231;48.746;9.234;2022-11-20T08:38:31;96256.41;;;5.94;100.00
39555;BME280;25231;48.746;9.234;2022-11-20T08:41:00;96248.38;;;5.95;100.00
39555;BME280;25231;48.746;9.234;2022-11-20T08:43:45;96248.94;;;5.97;100.00
39555;BME280;25231;48.746;9.234;2022-11-20T08:46:10;96251.78;;;5.96;100.00
39555;BME280;25231;48.746;9.234;2022-11-20T08:48:36;96246.00;;;5.94;100.00
39555;BME280;25231;48.746;9.234;2022-11-20T08:51:01;96250.41;;;5.86;100.00
39555;BME280;25231;48.746;9.234;2022-11-20T08:53:27;96251.78;;;6.20;100.00
39555;BME280;25231;48.746;9.234;2022-11-20T08:55:52;96248.66;;;6.12;100.00
39555;BME280;25231;48.746;9.234;2022-11-20T08:58:18;96252.44;;;6.16;100.00
39555;BME280;25231;48.746;9.234;2022-11-20T09:00:43;96256.84;;;6.40;100.00
39555;BME280;25231;48.746;9.234;2022-11-20T09:03:08;96252.00;;;6.44;100.00
39555;BME280;25231;48.746;9.234;2022-11-20T09:05:34;96250.16;;;6.69;100.00
39555;BME280;25231;48.746;9.234;2022-11-20T09:07:59;96262.97;;;6.71;100.00
39555;BME280;25231;48.746;9.234;2022-11-20T09:10:28;96264.78;;;6.70;100.00
39555;BME280;25231;48.746;9.234;2022-11-20T09:12:54;96262.31;;;6.75;100.00
39555;BME280;25231;48.746;9.234;2022-11-20T09:15:21;96265.22;;;6.67;100.00
39555;BME280;25231;48.746;9.234;2022-11-20T09:18:00;96264.72;;;6.77;100.00
39555;BME280;25231;48.746;9.234;2022-11-20T09:20:27;96270.59;;;6.72;100.00
39555;BME280;25231;48.746;9.234;2022-11-20T09:22:54;96271.00;;;6.69;100.00
39555;BME280;25231;48.746;9.234;2022-11-20T09:25:20;96265.53;;;6.77;100.00
39555;BME280;25231;48.746;9.234;2022-11-20T09:27:45;96272.34;;;6.96;100.00
39555;BME280;25231;48.746;9.234;2022-11-20T09:30:12;96279.34;;;6.78;100.00
39555;BME280;25231;48.746;9.234;2022-11-20T09:32:41;96277.94;;;6.75;100.00
39555;BME280;25231;48.746;9.234;2022-11-20T09:35:08;96268.47;;;6.62;100.00
39555;BME280;25231;48.746;9.234;2022-11-20T09:37:33;96270.69;;;6.59;100.00
39555;BME280;25231;48.746;9.234;2022-11-20T09:39:59;96273.78;;;6.74;100.00
39555;BME280;25231;48.746;9.234;2022-11-20T09:42:37;96278.59;;;6.71;100.00
39555;BME280;25231;48.746;9.234;2022-11-20T09:45:17;96280.25;;;6.65;100.00
39555;BME280;25231;48.746;9.234;2022-11-20T09:50:30;96279.34;;;6.53;100.00
39555;BME280;25231;48.746;9.234;2022-11-20T09:55:36;96292.66;;;6.88;100.00
39555;BME280;25231;48.746;9.234;2022-11-20T09:58:05;96285.56;;;6.77;100.00
39555;BME280;25231;48.746;9.234;2022-11-20T10:00:31;96286.66;;;6.87;100.00
39555;BME280;25231;48.746;9.234;2022-11-20T10:03:01;96287.09;;;6.84;100.00
39555;BME280;25231;48.746;9.234;2022-11-20T10:05:44;96283.41;;;6.74;100.00
39555;BME280;25231;48.746;9.234;2022-11-20T10:08:28;96281.13;;;7.02;100.00
39555;BME280;25231;48.746;9.234;2022-11-20T10:11:21;96275.59;;;6.92;100.00
39555;BME280;25231;48.746;9.234;2022-11-20T10:14:11;96278.19;;;6.92;100.00
39555;BME280;25231;48.746;9.234;2022-11-20T10:24:39;96291.31;;;6.60;100.00
39555;BME280;25231;48.746;9.234;2022-11-20T10:30:02;96291.91;;;6.62;100.00
39555;BME280;25231;48.746;9.234;2022-11-20T10:32:35;96293.91;;;6.60;100.00
39555;BME280;25231;48.746;9.234;2022-11-20T10:35:19;96302.72;;;6.59;100.00
39555;BME280;25231;48.746;9.234;2022-11-20T10:37:49;96301.47;;;6.44;100.00
39555;BME280;25231;48.746;9.234;2022-11-20T10:40:37;96298.09;;;6.37;100.00
39555;BME280;25231;48.746;9.234;2022-11-20T10:43:17;96303.72;;;6.40;100.00
39555;BME280;25231;48.746;9.234;2022-11-20T10:48:16;96301.56;;;5.99;100.00
39555;BME280;25231;48.746;9.234;2022-11-20T10:51:10;96306.31;;;6.09;100.00
39555;BME280;25231;48.746;9.234;2022-11-20T10:53:54;96299.31;;;6.09;100.00
39555;BME280;25231;48.746;9.234;2022-11-20T10:59:26;96290.13;;;6.07;100.00
39555;BME280;25231;48.746;9.234;2022-11-20T11:01:53;96295.16;;;6.02;100.00
39555;BME280;25231;48.746;9.234;2022-11-20T11:04:42;96294.97;;;5.97;100.00
39555;BME280;25231;48.746;9.234;2022-11-20T11:07:35;96290.47;;;6.17;100.00
39555;BME280;25231;48.746;9.234;2022-11-20T11:10:05;96287.25;;;6.15;100.00
39555;BME280;25231;48.746;9.234;2022-11-20T11:12:44;96285.66;;;6.14;100.00
39555;BME280;25231;48.746;9.234;2022-11-20T11:15:14;96283.44;;;6.17;100.00
39555;BME280;25231;48.746;9.234;2022-11-20T11:17:46;96279.03;;;6.18;100.00
39555;BME280;25231;48.746;9.234;2022-11-20T11:20:18;96283.72;;;6.03;100.00
39555;BME280;25231;48.746;9.234;2022-11-20T11:22:46;96271.56;;;5.97;100.00
39555;BME280;25231;48.746;9.234;2022-11-20T11:25:38;96260.56;;;6.26;100.00
39555;BME280;25231;48.746;9.234;2022-11-20T11:30:45;96256.16;;;6.69;100.00
39555;BME280;25231;48.746;9.234;2022-11-20T11:33:25;96246.13;;;6.73;100.00
39555;BME280;25231;48.746;9.234;2022-11-20T11:35:53;96245.75;;;6.69;100.00
39555;BME280;25231;48.746;9.234;2022-11-20T11:41:00;96239.34;;;6.72;100.00
39555;BME280;25231;48.746;9.234;2022-11-20T11:43:29;96240.94;;;6.73;100.00
39555;BME280;25231;48.746;9.234;2022-11-20T11:46:34;96233.63;;;6.82;100.00
39555;BME280;25231;48.746;9.234;2022-11-20T11:51:36;96232.09;;;6.92;100.00
39555;BME280;25231;48.746;9.234;2022-11-20T11:54:14;96230.50;;;6.91;100.00
39555;BME280;25231;48.746;9.234;2022-11-20T11:56:41;96225.81;;;7.00;100.00
39555;BME280;25231;48.746;9.234;2022-11-20T11:59:11;96221.75;;;7.04;100.00
39555;BME280;25231;48.746;9.234;2022-11-20T12:01:44;96208.59;;;6.99;100.00
39555;BME280;25231;48.746;9.234;2022-11-20T12:04:40;96215.88;;;7.08;100.00
39555;BME280;25231;48.746;9.234;2022-11-20T12:07:32;96212.94;;;7.05;100.00
39555;BME280;25231;48.746;9.234;2022-11-20T12:10:02;96214.34;;;7.19;100.00
39555;BME280;25231;48.746;9.234;2022-11-20T12:12:32;96209.94;;;7.20;100.00
39555;BME280;25231;48.746;9.234;2022-11-20T12:15:00;96214.38;;;7.49;100.00
39555;BME280;25231;48.746;9.234;2022-11-20T12:17:26;96214.34;;;7.67;100.00
39555;BME280;25231;48.746;9.234;2022-11-20T12:19:51;96214.72;;;7.52;100.00
39555;BME280;25231;48.746;9.234;2022-11-20T12:22:27;96222.28;;;7.72;100.00
39555;BME280;25231;48.746;9.234;2022-11-20T12:25:17;96210.94;;;7.67;100.00
39555;BME280;25231;48.746;9.234;2022-11-20T12:30:23;96198.69;;;7.37;100.00
39555;BME280;25231;48.746;9.234;2022-11-20T12:36:06;96197.22;;;7.30;100.00
39555;BME280;25231;48.746;9.234;2022-11-20T12:38:58;96191.88;;;7.06;100.00
39555;BME280;25231;48.746;9.234;2022-11-20T12:45:07;96193.69;;;6.88;99.10
39555;BME280;25231;48.746;9.234;2022-11-20T12:48:17;96197.16;;;6.82;95.99
39555;BME280;25231;48.746;9.234;2022-11-20T12:59:27;96201.31;;;7.19;92.09
39555;BME280;25231;48.746;9.234;2022-11-20T13:02:11;96209.44;;;7.29;93.56
39555;BME280;25231;48.746;9.234;2022-11-20T13:05:08;96204.63;;;7.44;93.76
39555;BME280;25231;48.746;9.234;2022-11-20T13:07:37;96201.06;;;7.57;91.91
39555;BME280;25231;48.746;9.234;2022-11-20T13:10:03;96199.88;;;7.53;90.95
39555;BME280;25231;48.746;9.234;2022-11-20T13:12:43;96197.47;;;7.40;89.59
39555;BME280;25231;48.746;9.234;2022-11-20T13:17:59;96192.81;;;7.12;90.15
39555;BME280;25231;48.746;9.234;2022-11-20T13:20:25;96204.44;;;7.09;87.94
39555;BME280;25231;48.746;9.234;2022-11-20T13:22:53;96199.63;;;7.13;87.53
39555;BME280;25231;48.746;9.234;2022-11-20T13:27:56;96202.75;;;7.33;86.59
39555;BME280;25231;48.746;9.234;2022-11-20T13:30:24;96200.03;;;7.28;84.59
39555;BME280;25231;48.746;9.234;2022-11-20T13:32:53;96185.00;;;7.42;85.15
39555;BME280;25231;48.746;9.234;2022-11-20T13:35:28;96191.00;;;7.42;83.14
39555;BME280;25231;48.746;9.234;2022-11-20T13:38:09;96190.63;;;7.57;85.78
39555;BME280;25231;48.746;9.234;2022-11-20T13:40:53;96183.09;;;7.49;86.61
39555;BME280;25231;48.746;9.234;2022-11-20T13:45:56;96170.47;;;7.34;87.20
39555;BME280;25231;48.746;9.234;2022-11-20T13:48:23;96172.50;;;7.32;86.56
39555;BME280;25231;48.746;9.234;2022-11-20T13:51:02;96173.69;;;7.18;87.50
39555;BME280;25231;48.746;9.234;2022-11-20T13:53:50;96175.94;;;7.44;86.73
39555;BME280;25231;48.746;9.234;2022-11-20T13:56:27;96174.47;;;7.48;86.59
39555;BME280;25231;48.746;9.234;2022-11-20T13:59:05;96167.28;;;7.62;86.41
39555;BME280;25231;48.746;9.234;2022-11-20T14:01:34;96165.47;;;7.63;85.62
39555;BME280;25231;48.746;9.234;2022-11-20T14:04:08;96166.72;;;7.72;86.69
39555;BME280;25231;48.746;9.234;2022-11-20T14:06:42;96169.22;;;7.67;85.07
39555;BME280;25231;48.746;9.234;2022-11-20T14:09:13;96178.63;;;7.68;85.41
39555;BME280;25231;48.746;9.234;2022-11-20T14:11:49;96163.34;;;7.83;88.18